Nearby METAR Reports

 

KSJC - San Jose, California, USA
Distance from station: NO 14km
aktuell: 22/01/2020 20:53
stark bewölkt
stark bewölkt
 Wind von NNW
Wind: NNW 9 km/h
Temperatur: 14°C
Taupunkt: 11°C
Luftfeuchte: 82%
Luftdruck: 1024.7 hPa
Clouds: stark bewölkt
Visibility: 16 km
Cloud details: Few Clouds 274 m
teilweise bewölkt 792 m
stark bewölkt 914 m
2020/01/22 19:53 KSJC 221953Z 33005KT 10SM FEW009 SCT026 BKN030 14/11 A3026 RMK AO2 SLP246 T01440111 $
KNUQ - Moffett Nas/Mtn, California, USA
Distance from station: N 14km
aktuell: 21/11/2019 17:56
NOT Current

 
Luftdruck: 1011.2 hPa
2019/11/21 16:56 KNUQ 211656Z AUTO A2986 RMK AO2 SLP116 PWINO $
KPAO - Palo Alto, California, USA
Distance from station: NNW 23km
aktuell: 22/01/2020 19:47
NOT Current
Mist, geschlossene Wolkendecke
Mist, geschlossene Wolkendecke
 Wind von N
Wind: N 9 km/h
Temperatur: 12°C
Taupunkt: 12°C
Luftfeuchte: 100%
Luftdruck: 1025.7 hPa
Zusammenfassung: Mist
Clouds: geschlossene Wolkendecke
Visibility: 4 km
Cloud details: stark bewölkt 274 m
geschlossene Wolkendecke 914 m
2020/01/22 18:47 KPAO 221847Z 35005KT 2 1/2SM BR BKN009 OVC030 12/12 A3029
 
KRHV - San Jose/Reid, California, USA
Distance from station: ONO 19km
aktuell: 22/01/2020 20:50
stark bewölkt
stark bewölkt
 Wind von W
Wind: W 9 km/h
Temperatur: 14°C
Taupunkt: 11°C
Luftfeuchte: 82%
Luftdruck: 1024.7 hPa
Clouds: stark bewölkt
Visibility: 16 km
Cloud details: stark bewölkt 610 m
stark bewölkt 1006 m
2020/01/22 19:50 KRHV 221950Z 28005KT 10SM BKN020 BKN033 14/11 A3026
KOAK - Oakland, California, USA
Distance from station: NNW 50km
aktuell: 22/01/2020 20:53
teilweise bewölkt
teilweise bewölkt
 Wind von WNW
Wind: WNW 11 km/h
Temperatur: 14°C
Taupunkt: 11°C
Luftfeuchte: 82%
Luftdruck: 1025.1 hPa
Clouds: teilweise bewölkt
Visibility: 16 km
Cloud details: Few Clouds 305 m
teilweise bewölkt 549 m
2020/01/22 19:53 KOAK 221953Z 29006KT 10SM FEW010 SCT018 14/11 A3027 RMK AO2 SLP250 T01390111
KSQL - San Carlos Airpo, California, USA
Distance from station: NW 34km
aktuell: 22/01/2020 20:51
geschlossene Wolkendecke
geschlossene Wolkendecke
 Wind von varies
Wind: varies 6 km/h
Temperatur: 13°C
Taupunkt: 12°C
Luftfeuchte: 94%
Luftdruck: 1025.4 hPa
Clouds: geschlossene Wolkendecke
Visibility: 16 km
Cloud details: stark bewölkt 335 m
geschlossene Wolkendecke 549 m
2020/01/22 19:51 KSQL 221951Z VRB03KT 10SM BKN011 OVC018 13/12 A3028
 
KSFO - San Francisco, California, USA
Distance from station: NW 49km
aktuell: 22/01/2020 20:56
stark bewölkt
stark bewölkt
 Wind von NNO
Wind: NNO 6 km/h
Temperatur: 12°C
Taupunkt: 10°C
Luftfeuchte: 88%
Luftdruck: 1025.1 hPa
Clouds: stark bewölkt
Visibility: 14 km
Cloud details: teilweise bewölkt 549 m
stark bewölkt 6096 m
2020/01/22 19:56 KSFO 221956Z 02003KT 9SM SCT018 BKN200 12/10 A3027 RMK AO2 SLP248 T01220100
KE16 - San Martin, California, USA
Distance from station: OSO 43km
aktuell: 14/11/2019 10:35
NOT Current
geschlossene Wolkendecke
geschlossene Wolkendecke
 Wind von SO
Wind: SO 11 km/h
Temperatur: 12°C
Taupunkt: 10°C
Luftfeuchte: 88%
Luftdruck: 1017.6 hPa
Clouds: geschlossene Wolkendecke
Visibility: 16 km
Cloud details: geschlossene Wolkendecke 427 m
2019/11/14 09:35 KE16 140935Z AUTO 13006KT 10SM OVC014 12/10 A3005 RMK AO2
KWVI - Watsonville, California, USA
Distance from station: SSO 44km
aktuell: 22/01/2020 20:53
geschlossene Wolkendecke
geschlossene Wolkendecke
 Wind von calm
Wind: Windstill
Temperatur: 14°C
Taupunkt: 12°C
Luftfeuchte: 88%
Luftdruck: 1024.7 hPa
Clouds: geschlossene Wolkendecke
Visibility: 16 km
Cloud details: geschlossene Wolkendecke 640 m
2020/01/22 19:53 KWVI 221953Z AUTO 00000KT 10SM OVC021 14/12 A3026 RMK AO2 SLP246 T01440117
 
KHAF - Half Moon Bay, California, USA
Distance from station: WNW 50km
aktuell: 22/01/2020 21:15
Haze, klar
Haze, klar
 Wind von WNW
Wind: WNW 9 km/h
Temperatur: 14°C
Taupunkt: 11°C
Luftfeuchte: 82%
Luftdruck: 1024.7 hPa
Zusammenfassung: Haze
Clouds: klar
Visibility: 10 km
2020/01/22 20:15 KHAF 222015Z AUTO 30005KT 6SM HZ CLR 14/11 A3026 RMK AO2
KHWD - Hayward, California, USA
Distance from station: N 44km
aktuell: 22/01/2020 20:54
teilweise bewölkt
teilweise bewölkt
 Wind von W
Wind: W 9 km/h
Temperatur: 14°C
Taupunkt: 11°C
Luftfeuchte: 82%
Luftdruck: 1024.7 hPa
Clouds: teilweise bewölkt
Visibility: 16 km
Cloud details: teilweise bewölkt 762 m
2020/01/22 19:54 KHWD 221954Z 28005KT 10SM SCT025 14/11 A3026 RMK AO2 SLP256 T01390111
KLVK - Livermore, California, USA
Distance from station: NNO 51km
aktuell: 22/01/2020 20:53
Few Clouds
Few Clouds
 Wind von calm
Wind: Windstill
Temperatur: 14°C
Taupunkt: 9°C
Luftfeuchte: 72%
Luftdruck: 1024.4 hPa
Clouds: Few Clouds
Visibility: 16 km
Cloud details: Few Clouds 823 m
2020/01/22 19:53 KLVK 221953Z 00000KT 10SM FEW027 14/09 A3025 RMK AO2 SLP242 T01390094